createdAt,value
2017-09-11T00:00:55.823Z,1.85
2017-09-11T00:03:24.112Z,1.60
2017-09-11T00:05:51.621Z,1.70
2017-09-11T00:08:19.148Z,1.57
2017-09-11T00:10:46.665Z,1.58
2017-09-11T00:13:14.186Z,1.70
2017-09-11T00:15:41.694Z,1.80
2017-09-11T00:18:09.985Z,1.75
2017-09-11T00:20:37.488Z,2.42
2017-09-11T00:23:05.016Z,1.80
2017-09-11T00:25:32.521Z,1.60
2017-09-11T00:28:00.048Z,1.90
2017-09-11T00:30:27.540Z,1.90
2017-09-11T00:32:55.064Z,1.98
2017-09-11T00:35:22.569Z,2.17
2017-09-11T00:37:50.097Z,1.90
2017-09-11T00:40:17.596Z,1.92
2017-09-11T00:42:45.116Z,1.80
2017-09-11T00:45:12.641Z,2.25
2017-09-11T00:47:40.933Z,1.70
2017-09-11T00:50:08.438Z,1.90
2017-09-11T00:52:35.977Z,1.70
2017-09-11T00:55:03.473Z,1.58
2017-09-11T00:57:30.996Z,2.30
2017-09-11T00:59:58.528Z,2.10
2017-09-11T01:02:26.068Z,1.80
2017-09-11T01:04:53.583Z,1.45
2017-09-11T01:07:21.113Z,1.80
2017-09-11T01:09:48.625Z,1.90
2017-09-11T01:12:16.157Z,1.85
2017-09-11T01:14:43.644Z,1.87
2017-09-11T01:17:11.169Z,1.42
2017-09-11T01:19:38.672Z,1.87
2017-09-11T01:22:07.064Z,1.40
2017-09-11T01:24:35.337Z,1.85
2017-09-11T01:27:02.852Z,1.67
2017-09-11T01:29:30.353Z,1.77
2017-09-11T01:31:58.654Z,1.65
2017-09-11T01:34:26.157Z,1.62
2017-09-11T01:36:53.681Z,1.80
2017-09-11T01:39:21.212Z,1.60
2017-09-11T01:41:49.488Z,1.70
2017-09-11T01:44:17.752Z,1.65
2017-09-11T01:46:45.280Z,2.28
2017-09-11T01:49:12.788Z,1.52
2017-09-11T01:51:40.313Z,1.80
2017-09-11T01:54:07.813Z,1.90
2017-09-11T01:56:36.107Z,1.73
2017-09-11T01:59:03.622Z,1.80
2017-09-11T02:01:31.150Z,2.10
2017-09-11T02:03:58.652Z,1.90
2017-09-11T02:06:26.174Z,1.67
2017-09-11T02:08:53.693Z,1.80
2017-09-11T02:11:21.984Z,2.00
2017-09-11T02:13:49.488Z,1.70
2017-09-11T02:16:17.008Z,1.83
2017-09-11T02:18:44.545Z,1.52
2017-09-11T02:21:12.837Z,1.67
2017-09-11T02:23:40.336Z,1.65
2017-09-11T02:26:53.227Z,1.80
2017-09-11T02:29:20.732Z,1.40
2017-09-11T02:31:48.253Z,1.62
2017-09-11T02:34:15.764Z,1.58
2017-09-11T02:36:43.284Z,1.30
2017-09-11T02:39:10.798Z,1.40
2017-09-11T02:41:39.088Z,1.90
2017-09-11T02:44:06.598Z,1.45
2017-09-11T02:46:34.122Z,1.60
2017-09-11T02:49:01.624Z,1.50
2017-09-11T02:51:29.148Z,1.75
2017-09-11T02:53:56.657Z,1.65
2017-09-11T02:56:24.180Z,1.55
2017-09-11T02:58:51.682Z,1.60
2017-09-11T03:01:19.208Z,1.60
2017-09-11T03:03:46.716Z,1.67
2017-09-11T03:06:15.010Z,1.80
2017-09-11T03:08:42.512Z,1.63
2017-09-11T03:11:10.030Z,1.70
2017-09-11T03:13:37.535Z,1.75
2017-09-11T03:16:05.057Z,1.52
2017-09-11T03:18:32.557Z,1.37
2017-09-11T03:21:00.071Z,1.50
2017-09-11T03:23:27.564Z,1.67
2017-09-11T03:25:55.078Z,1.50
2017-09-11T03:28:23.344Z,1.67
2017-09-11T03:30:51.644Z,1.73
2017-09-11T03:33:19.152Z,2.70
2017-09-11T03:35:46.672Z,1.55
2017-09-11T03:38:14.177Z,1.52
2017-09-11T03:40:41.699Z,1.60
2017-09-11T03:43:09.208Z,1.50
2017-09-11T03:45:36.732Z,1.95
2017-09-11T03:48:04.450Z,1.70
2017-09-11T03:50:32.732Z,1.62
2017-09-11T03:53:00.221Z,1.60
2017-09-11T03:55:27.739Z,1.30
2017-09-11T03:57:56.004Z,1.30
2017-09-11T04:00:23.516Z,1.65
2017-09-11T04:02:51.012Z,1.67
2017-09-11T04:05:18.533Z,1.40
2017-09-11T04:07:46.033Z,1.40
2017-09-11T04:10:13.552Z,1.52
2017-09-11T04:12:41.821Z,1.37
2017-09-11T04:15:09.342Z,1.48
2017-09-11T04:17:38.419Z,1.80
2017-09-11T04:20:05.941Z,2.40
2017-09-11T04:22:33.440Z,2.00
2017-09-11T04:25:00.976Z,1.30
2017-09-11T04:27:28.477Z,1.40
2017-09-11T04:29:56.789Z,1.60
2017-09-11T04:32:24.335Z,1.45
2017-09-11T04:34:51.855Z,1.65
2017-09-11T04:37:19.376Z,1.40
2017-09-11T04:39:46.918Z,1.42
2017-09-11T04:42:14.428Z,1.40
2017-09-11T04:44:41.942Z,1.60
2017-09-11T04:47:10.056Z,1.40
2017-09-11T04:49:37.563Z,1.60
2017-09-11T04:52:06.165Z,1.55
2017-09-11T04:54:33.769Z,1.60
2017-09-11T04:57:01.313Z,2.35
2017-09-11T04:59:28.838Z,1.40
2017-09-11T05:01:56.377Z,1.10
2017-09-11T05:04:24.685Z,1.33
2017-09-11T05:06:52.216Z,1.42
2017-09-11T05:09:20.569Z,1.48
2017-09-11T05:11:48.084Z,1.40
2017-09-11T05:14:15.633Z,1.70
2017-09-11T05:16:43.161Z,1.27
2017-09-11T05:19:10.682Z,1.50
2017-09-11T05:21:38.201Z,1.33
2017-09-11T05:24:06.488Z,1.30
2017-09-11T05:26:34.092Z,1.62
2017-09-11T05:29:01.614Z,1.67
2017-09-11T05:31:29.158Z,1.30
2017-09-11T05:33:56.692Z,1.83
2017-09-11T05:36:24.208Z,1.52
2017-09-11T05:38:51.779Z,1.40
2017-09-11T05:41:19.410Z,1.65
2017-09-11T05:43:46.942Z,1.40
2017-09-11T05:46:14.573Z,1.40
2017-09-11T05:48:42.089Z,1.80
2017-09-11T05:51:09.649Z,2.15
2017-09-11T05:53:37.935Z,1.35
2017-09-11T05:56:05.490Z,1.83
2017-09-11T05:58:36.280Z,1.62
2017-09-11T06:01:03.817Z,1.83
2017-09-11T06:03:31.329Z,1.60
2017-09-11T06:06:00.995Z,1.70
2017-09-11T06:08:28.509Z,2.20
2017-09-11T06:10:56.801Z,2.03
2017-09-11T06:13:24.321Z,1.58
2017-09-11T06:15:51.848Z,1.90
2017-09-11T06:18:19.359Z,1.70
2017-09-11T06:20:46.891Z,1.85
2017-09-11T06:23:14.397Z,2.03
2017-09-11T06:25:41.936Z,2.17
2017-09-11T06:28:10.204Z,1.80
2017-09-11T06:30:37.721Z,1.60
2017-09-11T06:33:05.735Z,1.70
2017-09-11T06:35:33.284Z,1.90
2017-09-11T06:38:00.808Z,2.83
2017-09-11T06:40:28.508Z,2.57
2017-09-11T06:42:56.033Z,2.00
2017-09-11T06:45:23.552Z,2.00
2017-09-11T06:47:51.839Z,1.90
2017-09-11T06:50:20.126Z,1.53
2017-09-11T06:52:48.716Z,1.60
2017-09-11T06:55:16.232Z,2.03
2017-09-11T06:57:43.780Z,2.07
2017-09-11T07:00:11.338Z,2.00
2017-09-11T07:02:38.896Z,1.83
2017-09-11T07:05:06.413Z,1.70
2017-09-11T07:07:33.950Z,1.90
2017-09-11T07:10:03.068Z,2.10
2017-09-11T07:12:42.325Z,1.90
2017-09-11T07:15:09.843Z,2.03
2017-09-11T07:17:37.461Z,1.67
2017-09-11T07:20:04.974Z,1.77
2017-09-11T07:22:33.274Z,2.10
2017-09-11T07:25:01.567Z,1.73
2017-09-11T07:27:29.092Z,1.80
2017-09-11T07:29:57.381Z,1.90
2017-09-11T07:32:24.905Z,2.33
2017-09-11T07:34:52.417Z,2.00
2017-09-11T07:37:19.959Z,2.17
2017-09-11T07:39:47.493Z,2.00
2017-09-11T07:42:16.651Z,1.90
2017-09-11T07:44:44.185Z,2.00
2017-09-11T07:47:11.732Z,1.70
2017-09-11T07:49:39.255Z,1.90
2017-09-11T07:52:07.388Z,2.00
2017-09-11T07:54:34.910Z,2.07
2017-09-11T07:57:03.206Z,1.60
2017-09-11T07:59:30.743Z,2.07
2017-09-11T08:01:59.045Z,2.33
2017-09-11T08:04:26.580Z,1.93
2017-09-11T08:06:54.881Z,1.83
2017-09-11T08:09:22.430Z,1.80
2017-09-11T08:11:49.961Z,2.10
2017-09-11T08:14:17.492Z,2.17
2017-09-11T08:16:45.052Z,2.43
2017-09-11T08:19:12.589Z,2.50
2017-09-11T08:21:40.125Z,2.03
2017-09-11T08:24:08.425Z,1.93
2017-09-11T08:26:35.962Z,1.70
2017-09-11T08:29:04.254Z,1.77
2017-09-11T08:31:31.787Z,1.73
2017-09-11T08:34:00.080Z,1.47
2017-09-11T08:36:28.373Z,1.50
2017-09-11T08:38:55.883Z,1.30
2017-09-11T08:41:23.422Z,1.20
2017-09-11T08:43:50.925Z,1.67
2017-09-11T08:46:18.554Z,2.17
2017-09-11T08:48:46.077Z,1.53
2017-09-11T08:51:13.609Z,1.30
2017-09-11T08:53:41.136Z,1.13
2017-09-11T08:56:11.763Z,1.50
2017-09-11T08:58:39.265Z,1.47
2017-09-11T09:01:07.586Z,1.40
2017-09-11T09:03:35.097Z,1.10
2017-09-11T09:06:03.401Z,1.00
2017-09-11T09:08:30.926Z,0.87
2017-09-11T09:10:58.507Z,1.00
2017-09-11T09:13:26.852Z,1.30
2017-09-11T09:15:57.760Z,1.00
2017-09-11T09:18:25.288Z,0.80
2017-09-11T09:20:53.576Z,1.20
2017-09-11T09:23:21.258Z,1.00
2017-09-11T09:25:48.776Z,0.90
2017-09-11T09:28:17.085Z,1.00
2017-09-11T09:30:44.604Z,0.80
2017-09-11T09:33:12.155Z,0.80
2017-09-11T09:35:42.688Z,1.07
2017-09-11T09:38:10.286Z,0.87
2017-09-11T09:40:37.809Z,1.00
2017-09-11T09:43:05.389Z,0.83
2017-09-11T09:45:36.383Z,1.10
2017-09-11T09:48:03.940Z,0.90
2017-09-11T09:50:31.473Z,1.00
2017-09-11T09:52:59.195Z,1.10
2017-09-11T09:55:26.717Z,1.10
2017-09-11T09:57:54.857Z,0.90
2017-09-11T10:00:23.128Z,0.93
2017-09-11T10:02:51.467Z,0.80
2017-09-11T10:05:18.974Z,1.00
2017-09-11T10:07:47.254Z,0.73
2017-09-11T10:10:14.858Z,0.93
2017-09-11T10:12:42.394Z,1.00
2017-09-11T10:15:09.937Z,0.90
2017-09-11T10:17:38.245Z,0.90
2017-09-11T10:20:05.769Z,1.23
2017-09-11T10:22:34.120Z,0.90
2017-09-11T10:25:01.670Z,0.90
2017-09-11T10:27:29.193Z,1.20
2017-09-11T10:29:57.510Z,1.00
2017-09-11T10:32:25.033Z,1.00
2017-09-11T10:34:52.564Z,1.03
2017-09-11T10:37:20.069Z,0.87
2017-09-11T10:39:47.619Z,0.73
2017-09-11T10:42:15.145Z,1.27
2017-09-11T10:44:42.697Z,0.90
2017-09-11T10:47:11.006Z,1.10
2017-09-11T10:49:38.545Z,1.20
2017-09-11T10:52:06.278Z,0.83
2017-09-11T10:54:33.821Z,0.93
2017-09-11T10:57:01.348Z,1.30
2017-09-11T10:59:28.961Z,0.80
2017-09-11T11:01:56.605Z,1.10
2017-09-11T11:04:24.170Z,1.10
2017-09-11T11:06:51.710Z,1.20
2017-09-11T11:09:19.245Z,0.93
2017-09-11T11:11:46.814Z,1.00
2017-09-11T11:14:14.367Z,1.10
2017-09-11T11:16:41.962Z,0.90
2017-09-11T11:19:09.486Z,0.90
2017-09-11T11:21:37.051Z,1.40
2017-09-11T11:24:05.373Z,1.20
2017-09-11T11:26:32.983Z,1.03
2017-09-11T11:29:00.535Z,0.80
2017-09-11T11:31:28.873Z,1.03
2017-09-11T11:33:56.424Z,1.17
2017-09-11T11:36:23.983Z,1.23
2017-09-11T11:38:51.522Z,1.30
2017-09-11T11:41:19.114Z,1.20
2017-09-11T11:46:37.875Z,1.00
2017-09-11T11:49:05.393Z,0.90
2017-09-11T11:51:33.685Z,0.80
2017-09-11T11:54:01.222Z,1.00
2017-09-11T11:56:28.793Z,1.00
2017-09-11T11:58:57.097Z,1.10
2017-09-11T12:01:24.653Z,1.13
2017-09-11T12:03:52.168Z,0.90
2017-09-11T12:06:19.700Z,1.30
2017-09-11T12:08:47.464Z,0.80
2017-09-11T12:11:14.996Z,0.70
2017-09-11T12:13:42.522Z,0.70
2017-09-11T12:16:10.070Z,1.00
2017-09-11T12:18:37.585Z,0.87
2017-09-11T12:21:05.101Z,0.80
2017-09-11T12:23:32.606Z,0.80
2017-09-11T12:26:00.126Z,0.80
2017-09-11T12:28:27.699Z,1.10
2017-09-11T12:30:55.993Z,1.00
2017-09-11T12:33:23.484Z,1.50
2017-09-11T12:35:51.013Z,1.37
2017-09-11T12:38:18.518Z,1.20
2017-09-11T12:40:46.090Z,0.90
2017-09-11T12:43:13.605Z,1.00
2017-09-11T12:45:41.187Z,0.80
2017-09-11T12:48:08.793Z,0.90
2017-09-11T12:50:37.108Z,1.00
2017-09-11T12:53:04.645Z,1.23
2017-09-11T12:55:32.200Z,0.90
2017-09-11T12:57:59.734Z,0.90
2017-09-11T13:00:27.521Z,1.07
2017-09-11T13:02:55.827Z,1.23
2017-09-11T13:05:24.423Z,1.20
2017-09-11T13:07:51.959Z,1.50
2017-09-11T13:10:19.543Z,0.97
2017-09-11T13:12:47.081Z,1.20
2017-09-11T13:15:15.395Z,1.40
2017-09-11T13:17:42.919Z,1.30
2017-09-11T13:20:10.478Z,1.50
2017-09-11T13:22:38.255Z,1.23
2017-09-11T13:25:05.801Z,1.73
2017-09-11T13:27:33.345Z,1.50
2017-09-11T13:30:00.903Z,1.83
2017-09-11T13:32:29.201Z,1.87
2017-09-11T13:34:56.733Z,1.67
2017-09-11T13:37:25.090Z,1.60
2017-09-11T13:39:52.646Z,1.70
2017-09-11T13:42:20.254Z,1.37
2017-09-11T13:44:47.785Z,1.40
2017-09-11T13:47:15.380Z,1.60
2017-09-11T13:49:43.011Z,1.60
2017-09-11T13:52:10.586Z,1.60
2017-09-11T13:54:38.917Z,1.83
2017-09-11T13:57:06.484Z,1.53
2017-09-11T13:59:34.044Z,1.23
2017-09-11T14:02:01.592Z,1.57
2017-09-11T14:04:29.193Z,1.33
2017-09-11T14:06:56.742Z,1.60
2017-09-11T14:09:24.937Z,1.33
2017-09-11T14:11:52.524Z,1.73
2017-09-11T14:14:20.105Z,1.47
2017-09-11T14:16:47.773Z,1.60
2017-09-11T14:19:15.415Z,1.77
2017-09-11T14:21:43.007Z,1.53
2017-09-11T14:24:10.556Z,1.50
2017-09-11T14:26:39.353Z,1.50
2017-09-11T14:29:07.044Z,1.40
2017-09-11T14:31:34.669Z,1.40
2017-09-11T14:34:02.349Z,1.77
2017-09-11T14:36:30.015Z,1.77
2017-09-11T14:38:57.672Z,1.73
2017-09-11T14:41:25.298Z,1.50
2017-09-11T14:43:52.935Z,1.57
2017-09-11T14:46:20.519Z,1.90
2017-09-11T14:48:48.103Z,1.50
2017-09-11T14:51:15.687Z,1.97
2017-09-11T14:53:43.311Z,1.60
2017-09-11T14:56:10.914Z,1.60
2017-09-11T14:58:38.541Z,1.80
2017-09-11T15:01:06.094Z,1.87
2017-09-11T15:03:33.698Z,1.60
2017-09-11T15:06:01.354Z,2.10
2017-09-11T15:08:28.913Z,1.40
2017-09-11T15:10:56.451Z,1.57
2017-09-11T15:13:23.997Z,1.70
2017-09-11T15:15:51.545Z,1.70
2017-09-11T15:18:19.125Z,2.37
2017-09-11T15:20:46.653Z,1.90
2017-09-11T15:23:14.963Z,1.60
2017-09-11T15:25:48.393Z,1.60
2017-09-11T15:28:16.014Z,1.67
2017-09-11T15:30:43.540Z,1.50
2017-09-11T15:33:11.104Z,2.20
2017-09-11T15:35:39.411Z,1.70
2017-09-11T15:38:06.961Z,2.13
2017-09-11T15:40:34.505Z,2.00
2017-09-11T15:43:02.837Z,1.80
2017-09-11T15:45:30.334Z,1.80
2017-09-11T15:47:57.852Z,1.60
2017-09-11T15:50:25.479Z,1.67
2017-09-11T15:52:53.776Z,1.70
2017-09-11T15:55:21.347Z,1.77
2017-09-11T15:57:48.890Z,2.10
2017-09-11T16:00:16.437Z,2.00
2017-09-11T16:02:44.723Z,2.20
2017-09-11T16:05:13.000Z,1.83
2017-09-11T16:07:42.913Z,1.50
2017-09-11T16:10:10.458Z,1.50
2017-09-11T16:12:38.745Z,2.10
2017-09-11T16:15:07.046Z,1.90
2017-09-11T16:17:34.554Z,1.57
2017-09-11T16:20:02.988Z,1.50
2017-09-11T16:22:30.498Z,1.63
2017-09-11T16:24:58.054Z,2.00
2017-09-11T16:27:28.011Z,2.10
2017-09-11T16:29:55.589Z,1.73
2017-09-11T16:32:23.106Z,1.63
2017-09-11T16:34:50.618Z,2.40
2017-09-11T16:37:18.124Z,2.03
2017-09-11T16:39:45.701Z,3.03
2017-09-11T16:42:13.264Z,2.00
2017-09-11T16:44:41.758Z,1.97
2017-09-11T16:47:09.294Z,1.90
2017-09-11T16:49:36.865Z,2.83
2017-09-11T16:52:05.155Z,2.00
2017-09-11T16:54:32.718Z,2.20
2017-09-11T16:57:00.246Z,2.40
2017-09-11T16:59:27.776Z,1.90
2017-09-11T17:01:55.296Z,2.47
2017-09-11T17:04:22.852Z,2.80
2017-09-11T17:06:50.369Z,2.00
2017-09-11T17:09:17.903Z,2.17
2017-09-11T17:11:45.427Z,1.77
2017-09-11T17:14:13.788Z,2.30
2017-09-11T17:16:42.121Z,2.47
2017-09-11T17:19:09.865Z,1.97
2017-09-11T17:21:38.809Z,1.97
2017-09-11T17:24:07.245Z,2.20
2017-09-11T17:26:34.887Z,2.23
2017-09-11T17:29:02.516Z,2.00
2017-09-11T17:31:30.789Z,2.40
2017-09-11T17:33:58.418Z,2.40
2017-09-11T17:36:26.022Z,2.50
2017-09-11T17:38:55.134Z,2.20
2017-09-11T17:41:22.723Z,2.87
2017-09-11T17:43:50.298Z,2.50
2017-09-11T17:46:17.936Z,2.57
2017-09-11T17:48:45.470Z,2.90
2017-09-11T17:51:13.858Z,2.72
2017-09-11T17:53:42.781Z,2.20
2017-09-11T17:56:10.430Z,3.87
2017-09-11T17:58:37.994Z,4.13
2017-09-11T18:01:05.634Z,5.20
2017-09-11T18:03:33.947Z,3.60
2017-09-11T18:06:01.569Z,3.17
2017-09-11T18:08:29.893Z,2.20
2017-09-11T18:10:58.231Z,2.93
2017-09-11T18:13:26.025Z,2.60
2017-09-11T18:15:53.654Z,2.53
2017-09-11T18:18:22.339Z,2.65
2017-09-11T18:20:56.246Z,2.10
2017-09-11T18:23:27.214Z,2.20
2017-09-11T18:26:02.477Z,2.30
2017-09-11T18:28:34.271Z,2.42
2017-09-11T18:31:11.849Z,2.55
2017-09-11T18:33:50.838Z,2.25
2017-09-11T18:39:02.685Z,2.17
2017-09-11T18:41:31.451Z,2.22
2017-09-11T18:43:59.113Z,2.27
2017-09-11T18:46:26.634Z,1.97
2017-09-11T18:48:54.181Z,2.33
2017-09-11T18:51:21.685Z,1.80
2017-09-11T18:53:49.982Z,2.37
2017-09-11T18:56:17.483Z,2.50
2017-09-11T18:58:45.008Z,2.40
2017-09-11T19:01:12.521Z,2.42
2017-09-11T19:03:40.037Z,2.43
2017-09-11T19:06:07.550Z,2.60
2017-09-11T19:08:35.845Z,2.25
2017-09-11T19:11:03.368Z,2.63
2017-09-11T19:13:30.904Z,2.60
2017-09-11T19:15:58.404Z,3.08
2017-09-11T19:18:25.953Z,2.55
2017-09-11T19:20:53.466Z,2.35
2017-09-11T19:23:21.027Z,2.20
2017-09-11T19:25:48.580Z,3.28
2017-09-11T19:28:16.145Z,2.40
2017-09-11T19:30:43.697Z,2.17
2017-09-11T19:33:11.255Z,2.20
2017-09-11T19:35:38.812Z,2.05
2017-09-11T19:38:06.401Z,1.92
2017-09-11T19:40:33.932Z,2.10
2017-09-11T19:43:01.494Z,2.20
2017-09-11T19:45:29.019Z,2.00
2017-09-11T19:47:57.348Z,2.30
2017-09-11T19:50:24.892Z,2.45
2017-09-11T19:52:52.432Z,2.45
2017-09-11T19:55:19.984Z,2.75
2017-09-11T19:57:47.553Z,2.30
2017-09-11T20:00:15.119Z,2.85
2017-09-11T20:02:42.707Z,2.40
2017-09-11T20:05:10.245Z,2.78
2017-09-11T20:07:37.804Z,2.47
2017-09-11T20:10:05.350Z,2.60
2017-09-11T20:12:35.386Z,2.50
2017-09-11T20:15:02.970Z,2.35
2017-09-11T20:17:30.523Z,2.05
2017-09-11T20:19:58.093Z,1.98
2017-09-11T20:22:25.689Z,2.47
2017-09-11T20:24:53.243Z,2.35
2017-09-11T20:27:20.801Z,2.40
2017-09-11T20:29:48.337Z,2.67
2017-09-11T20:32:15.891Z,2.58
2017-09-11T20:34:43.463Z,2.30
2017-09-11T20:37:11.000Z,2.80
2017-09-11T20:39:39.317Z,2.50
2017-09-11T20:42:06.878Z,2.17
2017-09-11T20:44:34.500Z,2.60
2017-09-11T20:47:02.046Z,2.17
2017-09-11T20:49:29.629Z,1.95
2017-09-11T20:51:57.139Z,2.40
2017-09-11T20:54:24.682Z,2.55
2017-09-11T20:56:52.196Z,3.35
2017-09-11T20:59:19.730Z,1.90
2017-09-11T21:01:48.020Z,2.40
2017-09-11T21:04:15.566Z,2.33
2017-09-11T21:06:43.097Z,2.43
2017-09-11T21:09:10.666Z,2.85
2017-09-11T21:11:38.179Z,2.50
2017-09-11T21:14:05.712Z,2.23
2017-09-11T21:16:33.989Z,2.80
2017-09-11T21:19:02.314Z,2.70
2017-09-11T21:21:29.842Z,2.90
2017-09-11T21:23:57.393Z,3.47
2017-09-11T21:26:24.928Z,2.17
2017-09-11T21:28:52.479Z,2.90
2017-09-11T21:31:19.987Z,2.67
2017-09-11T21:33:47.509Z,2.30
2017-09-11T21:36:15.012Z,2.90
2017-09-11T21:38:42.541Z,2.87
2017-09-11T21:41:10.042Z,2.42
2017-09-11T21:43:37.569Z,2.40
2017-09-11T21:46:05.845Z,2.60
2017-09-11T21:48:34.150Z,2.80
2017-09-11T21:51:01.664Z,2.62
2017-09-11T21:53:29.194Z,3.20
2017-09-11T21:55:56.692Z,2.47
2017-09-11T21:58:24.981Z,3.20
2017-09-11T22:00:53.245Z,2.53
2017-09-11T22:03:20.765Z,2.62
2017-09-11T22:05:48.293Z,2.62
2017-09-11T22:08:15.821Z,2.37
2017-09-11T22:10:43.339Z,2.47
2017-09-11T22:13:10.952Z,2.70
2017-09-11T22:15:39.267Z,3.35
2017-09-11T22:18:06.805Z,2.60
2017-09-11T22:20:35.082Z,2.65
2017-09-11T22:23:03.372Z,2.65
2017-09-11T22:25:30.868Z,2.10
2017-09-11T22:27:58.393Z,2.35
2017-09-11T22:30:25.892Z,2.37
2017-09-11T22:32:54.228Z,2.10
2017-09-11T22:35:21.738Z,2.65
2017-09-11T22:37:49.261Z,2.60
2017-09-11T22:40:17.528Z,2.30
2017-09-11T22:42:45.056Z,2.40
2017-09-11T22:45:13.335Z,3.00
2017-09-11T22:47:41.628Z,2.10
2017-09-11T22:50:09.133Z,2.10
2017-09-11T22:52:36.666Z,2.53
2017-09-11T22:55:04.181Z,2.45
2017-09-11T22:57:31.709Z,2.33
2017-09-11T22:59:59.209Z,2.30
2017-09-11T23:02:27.489Z,2.33
2017-09-11T23:04:55.765Z,2.10
2017-09-11T23:07:24.057Z,1.83
2017-09-11T23:09:52.321Z,2.37
2017-09-11T23:12:20.603Z,2.90
2017-09-11T23:14:48.885Z,3.20
2017-09-11T23:17:17.189Z,2.50
2017-09-11T23:19:45.452Z,3.00
2017-09-11T23:22:12.980Z,1.77
2017-09-11T23:24:40.484Z,2.08
2017-09-11T23:27:08.780Z,2.40
2017-09-11T23:29:36.285Z,2.50
2017-09-11T23:32:04.553Z,2.37
2017-09-11T23:34:32.072Z,2.85
2017-09-11T23:36:59.592Z,1.85
2017-09-11T23:39:27.131Z,2.40
2017-09-11T23:41:55.412Z,2.35
2017-09-11T23:44:22.945Z,2.17
2017-09-11T23:46:50.448Z,2.90
2017-09-11T23:49:18.740Z,2.67
2017-09-11T23:51:46.236Z,2.40
2017-09-11T23:54:13.778Z,2.45
2017-09-11T23:56:41.281Z,2.10
2017-09-11T23:59:08.800Z,1.83
